SAA555 FAOR-FALE
Flight info
| Callsign | SAA555 |
|---|---|
| Flight time | N/A |
| Altitude | 25000 |
| Route | APDAK1B APDAK UQ48 APMAT APMAT1A |
| Aircraft | A320/M-SDE3FGHIRWY/LB1 |
Departure
| Time | N/A |
|---|---|
| Airport | O.R. Tambo International Airport (FAOR) |
Arrival
| Time | 2026-04-29 20:29 |
|---|---|
| Airport | King Shaka International Airport (FALE) |
| Time | Latitude | Longitude | Altitude | Speed | Heading |
|---|---|---|---|---|---|
| 2026-04-29 20:06 | -28.22505 | 30.45935 | 25258 ft | 514 kts | 147° |
| 2026-04-29 20:06 | -28.25528 | 30.48535 | 25258 ft | 514 kts | 147° |
| 2026-04-29 20:06 | -28.28381 | 30.50992 | 25258 ft | 514 kts | 147° |
| 2026-04-29 20:06 | -28.31237 | 30.53453 | 25258 ft | 514 kts | 147° |
| 2026-04-29 20:07 | -28.34061 | 30.55887 | 25258 ft | 514 kts | 147° |
| 2026-04-29 20:07 | -28.36909 | 30.58345 | 25168 ft | 515 kts | 147° |
| 2026-04-29 20:07 | -28.39766 | 30.60811 | 24842 ft | 514 kts | 147° |
| 2026-04-29 20:07 | -28.42609 | 30.63269 | 24465 ft | 511 kts | 147° |
| 2026-04-29 20:08 | -28.45436 | 30.65713 | 24088 ft | 507 kts | 147° |
| 2026-04-29 20:08 | -28.47294 | 30.67321 | 23838 ft | 504 kts | 147° |
| 2026-04-29 20:08 | -28.51007 | 30.70536 | 23336 ft | 499 kts | 147° |
| 2026-04-29 20:08 | -28.53757 | 30.72917 | 22961 ft | 495 kts | 147° |
| 2026-04-29 20:09 | -28.56489 | 30.75286 | 22585 ft | 492 kts | 147° |
| 2026-04-29 20:09 | -28.59163 | 30.77605 | 22214 ft | 488 kts | 147° |
| 2026-04-29 20:09 | -28.61861 | 30.79947 | 21837 ft | 484 kts | 147° |
| 2026-04-29 20:09 | -28.64531 | 30.82266 | 21461 ft | 481 kts | 147° |
| 2026-04-29 20:10 | -28.67182 | 30.84571 | 21085 ft | 477 kts | 147° |
| 2026-04-29 20:10 | -28.69805 | 30.86852 | 20710 ft | 474 kts | 147° |
| 2026-04-29 20:10 | -28.72422 | 30.89130 | 20333 ft | 470 kts | 147° |
| 2026-04-29 20:10 | -28.75014 | 30.91374 | 19958 ft | 466 kts | 148° |
| 2026-04-29 20:11 | -28.77721 | 30.93383 | 19581 ft | 461 kts | 155° |
| 2026-04-29 20:11 | -28.80603 | 30.94969 | 19204 ft | 458 kts | 162° |
| 2026-04-29 20:11 | -28.83616 | 30.96092 | 18829 ft | 455 kts | 169° |
| 2026-04-29 20:11 | -28.86655 | 30.96923 | 18458 ft | 453 kts | 171° |
| 2026-04-29 20:12 | -28.89730 | 30.97723 | 18081 ft | 452 kts | 170° |
| 2026-04-29 20:12 | -28.92800 | 30.98512 | 17705 ft | 452 kts | 169° |
| 2026-04-29 20:12 | -28.95862 | 30.99298 | 17330 ft | 450 kts | 169° |
| 2026-04-29 20:12 | -28.98913 | 31.00083 | 16954 ft | 448 kts | 168° |
| 2026-04-29 20:13 | -29.01948 | 31.00867 | 16578 ft | 445 kts | 167° |
| 2026-04-29 20:13 | -29.03953 | 31.01387 | 16328 ft | 443 kts | 167° |
| 2026-04-29 20:13 | -29.07944 | 31.02428 | 15825 ft | 437 kts | 166° |
| 2026-04-29 20:13 | -29.10886 | 31.03203 | 15450 ft | 432 kts | 165° |
| 2026-04-29 20:14 | -29.13796 | 31.03986 | 15072 ft | 422 kts | 165° |
| 2026-04-29 20:14 | -29.16259 | 31.04656 | 14743 ft | 409 kts | 165° |
| 2026-04-29 20:14 | -29.18858 | 31.05365 | 14384 ft | 396 kts | 166° |
| 2026-04-29 20:15 | -29.21498 | 31.06082 | 14007 ft | 380 kts | 166° |
| 2026-04-29 20:15 | -29.24001 | 31.06759 | 13613 ft | 360 kts | 166° |
| 2026-04-29 20:15 | -29.26400 | 31.07406 | 13000 ft | 350 kts | 167° |
| 2026-04-29 20:15 | -29.28731 | 31.08031 | 12379 ft | 342 kts | 167° |
| 2026-04-29 20:16 | -29.31029 | 31.08643 | 11752 ft | 335 kts | 168° |
| 2026-04-29 20:16 | -29.33273 | 31.09237 | 11127 ft | 328 kts | 168° |
| 2026-04-29 20:16 | -29.35478 | 31.09818 | 10500 ft | 321 kts | 168° |
| 2026-04-29 20:16 | -29.37648 | 31.10383 | 9871 ft | 316 kts | 168° |
| 2026-04-29 20:17 | -29.39777 | 31.10925 | 9244 ft | 310 kts | 167° |
| 2026-04-29 20:17 | -29.41895 | 31.11305 | 8613 ft | 306 kts | 178° |
| 2026-04-29 20:17 | -29.43961 | 31.10896 | 7984 ft | 302 kts | 201° |
| 2026-04-29 20:17 | -29.45753 | 31.09674 | 7376 ft | 297 kts | 214° |
| 2026-04-29 20:18 | -29.47408 | 31.08282 | 6750 ft | 293 kts | 216° |
| 2026-04-29 20:18 | -29.49022 | 31.06890 | 6125 ft | 289 kts | 216° |
| 2026-04-29 20:18 | -29.50604 | 31.05517 | 5717 ft | 278 kts | 216° |
| 2026-04-29 20:18 | -29.52101 | 31.04214 | 5703 ft | 263 kts | 216° |
| 2026-04-29 20:19 | -29.53538 | 31.02964 | 5703 ft | 262 kts | 216° |
| 2026-04-29 20:19 | -29.54989 | 31.01701 | 5703 ft | 262 kts | 216° |
| 2026-04-29 20:19 | -29.56445 | 31.00433 | 5703 ft | 262 kts | 216° |
| 2026-04-29 20:19 | -29.57897 | 30.99167 | 5703 ft | 262 kts | 216° |
| 2026-04-29 20:20 | -29.59352 | 30.97900 | 5703 ft | 262 kts | 216° |
| 2026-04-29 20:20 | -29.60806 | 30.96633 | 5703 ft | 262 kts | 216° |
| 2026-04-29 20:20 | -29.62260 | 30.95368 | 5703 ft | 262 kts | 216° |
| 2026-04-29 20:20 | -29.63687 | 30.94126 | 5701 ft | 258 kts | 216° |
| 2026-04-29 20:21 | -29.65096 | 30.92898 | 5531 ft | 251 kts | 216° |
| 2026-04-29 20:21 | -29.66480 | 30.91692 | 5280 ft | 248 kts | 216° |
| 2026-04-29 20:21 | -29.67853 | 30.90494 | 5029 ft | 246 kts | 216° |
| 2026-04-29 20:21 | -29.69209 | 30.89309 | 4779 ft | 244 kts | 216° |
| 2026-04-29 20:22 | -29.70701 | 30.88451 | 4517 ft | 239 kts | 191° |
| 2026-04-29 20:22 | -29.72324 | 30.88547 | 4266 ft | 233 kts | 160° |
| 2026-04-29 20:22 | -29.73636 | 30.89534 | 4030 ft | 227 kts | 134° |
| 2026-04-29 20:22 | -29.74684 | 30.90873 | 3788 ft | 225 kts | 130° |
| 2026-04-29 20:23 | -29.75709 | 30.92225 | 3600 ft | 221 kts | 130° |
| 2026-04-29 20:23 | -29.76686 | 30.93572 | 3422 ft | 217 kts | 129° |
| 2026-04-29 20:23 | -29.77327 | 30.94445 | 3298 ft | 214 kts | 125° |
| 2026-04-29 20:23 | -29.77767 | 30.96546 | 3119 ft | 199 kts | 79° |
| 2026-04-29 20:24 | -29.77112 | 30.97842 | 3142 ft | 184 kts | 44° |
| 2026-04-29 20:24 | -29.76114 | 30.98762 | 3180 ft | 183 kts | 40° |
| 2026-04-29 20:24 | -29.75470 | 30.99356 | 3169 ft | 173 kts | 40° |
| 2026-04-29 20:24 | -29.74593 | 31.00146 | 3146 ft | 149 kts | 40° |
| 2026-04-29 20:25 | -29.73791 | 31.00864 | 3061 ft | 145 kts | 40° |
| 2026-04-29 20:25 | -29.72999 | 31.01565 | 2865 ft | 141 kts | 40° |
| 2026-04-29 20:25 | -29.72230 | 31.02243 | 2682 ft | 141 kts | 39° |
| 2026-04-29 20:25 | -29.71449 | 31.02930 | 2492 ft | 140 kts | 39° |
| 2026-04-29 20:26 | -29.70673 | 31.03610 | 2305 ft | 140 kts | 39° |
| 2026-04-29 20:26 | -29.69902 | 31.04286 | 2120 ft | 139 kts | 40° |
| 2026-04-29 20:26 | -29.69136 | 31.04958 | 1936 ft | 138 kts | 40° |
| 2026-04-29 20:26 | -29.68373 | 31.05627 | 1754 ft | 138 kts | 40° |
| 2026-04-29 20:27 | -29.67613 | 31.06292 | 1573 ft | 137 kts | 39° |
| 2026-04-29 20:27 | -29.67108 | 31.06735 | 1453 ft | 137 kts | 39° |
| 2026-04-29 20:27 | -29.66107 | 31.07612 | 1216 ft | 137 kts | 39° |
| 2026-04-29 20:27 | -29.65348 | 31.08275 | 1038 ft | 136 kts | 39° |
| 2026-04-29 20:28 | -29.64595 | 31.08936 | 863 ft | 136 kts | 39° |
| 2026-04-29 20:28 | -29.63843 | 31.09605 | 676 ft | 136 kts | 40° |
| 2026-04-29 20:28 | -29.63089 | 31.10260 | 496 ft | 135 kts | 38° |
| 2026-04-29 20:28 | -29.62362 | 31.10875 | 347 ft | 122 kts | 39° |
| 2026-04-29 20:29 | -29.61844 | 31.11334 | 319 ft | 55 kts | 39° |
| 2026-04-29 20:29 | -29.61636 | 31.11521 | 319 ft | 36 kts | 38° |
| 2026-04-29 20:29 | -29.61448 | 31.11688 | 319 ft | 29 kts | 38° |
| 2026-04-29 20:29 | -29.61324 | 31.11763 | 319 ft | 14 kts | 315° |
| 2026-04-29 20:30 | -29.61336 | 31.11679 | 319 ft | 11 kts | 249° |
| 2026-04-29 20:30 | -29.61367 | 31.11592 | 319 ft | 12 kts | 246° |
| 2026-04-29 20:30 | -29.61403 | 31.11499 | 319 ft | 13 kts | 241° |
| 2026-04-29 20:30 | -29.61470 | 31.11424 | 319 ft | 14 kts | 217° |
| 2026-04-29 20:31 | -29.61548 | 31.11355 | 319 ft | 15 kts | 217° |
| 2026-04-29 20:31 | -29.61630 | 31.11285 | 319 ft | 15 kts | 217° |
| 2026-04-29 20:31 | -29.61717 | 31.11209 | 319 ft | 16 kts | 217° |
| 2026-04-29 20:31 | -29.61790 | 31.11140 | 319 ft | 9 kts | 253° |
| 2026-04-29 20:32 | -29.61759 | 31.11082 | 319 ft | 9 kts | 308° |
| 2026-04-29 20:32 | -29.61717 | 31.11021 | 319 ft | 10 kts | 308° |
| 2026-04-29 20:32 | -29.61672 | 31.10953 | 319 ft | 11 kts | 297° |
| 2026-04-29 20:32 | -29.61703 | 31.10888 | 319 ft | 10 kts | 220° |
| 2026-04-29 20:33 | -29.61746 | 31.10839 | 319 ft | 8 kts | 247° |
| 2026-04-29 20:33 | -29.61726 | 31.10791 | 319 ft | 5 kts | 309° |
| 2026-04-29 20:33 | -29.61724 | 31.10789 | 319 ft | 0 kts | 309° |